Herne Bay, United Kingdom
Current Conditions -  °F | °C
As of 10:50 PM on Thursday 23 Oct 2014 (Local Time) from EGMC Reporting Station
Broken Clouds Broken Clouds  
Wind Chill: 15°   Ceiling: 1400
Heat Index: 15°   Visibility: 6mi
Dew Point: 13°   Wind: 12mph
Humidity: 88%   Direction: 210°SSW
Pressure: 30.03"   Gusts: NA
Location:  51.37°N, 1.13°E
Report Text: EGMC 232150Z 21010KT 9999 FEW010 BKN014 15/13 Q1017
Loading
Personal Weather Stations






























Interactive Weather Map
Tropical Storm Tracking
New forecast layout! Learn more

10-Day Weather Forecast

Advertisements
Track Severe Weather on mobile